Time;durP1;ratioP1;P1;durP2;ratioP2;P2;SDS_P1;SDS_P2;PMS_P1;PMS_P2;Temp;Humidity;BMP_temperature;BMP_pressure;BME280_temperature;BME280_humidity;BME280_pressure;Samples;Min_cycle;Max_cycle;Signal;HPM_P1;HPM_P2
2022/12/18 00:01:33;;;;;;;;;;;;;;;;;;4953677;28;1068;-72
2022/12/18 00:04:00;;;;;;;;;;;;;;;;;;4955752;28;1252;-72
2022/12/18 00:06:27;;;;;;;;;;;;;;;;;;4957466;28;1984;-72
2022/12/18 00:08:53;;;;;;;;;;;;;;;;;;4955765;28;1061;-72
2022/12/18 00:11:20;;;;;;;;;;;;;;;;;;4940746;29;1690;-72
2022/12/18 00:13:48;;;;;;;;;;;;;;;;;;4941376;28;1198;-72
2022/12/18 00:16:15;;;;;;;;;;;;;;;;;;4945167;28;1325;-72
2022/12/18 00:18:41;;;;;;;;;;;;;;;;;;4942409;29;1131;-71
2022/12/18 00:21:08;;;;;;;;;;;;;;;;;;4940661;28;1183;-73
2022/12/18 00:23:34;;;;;;;;;;;;;;;;;;4934742;29;772;-72
2022/12/18 00:26:01;;;;;;;;;;;;;;;;;;4936935;29;1990;-72
2022/12/18 00:28:27;;;;;;;;;;;;;;;;;;4938525;29;1076;-72
2022/12/18 00:31:01;;;;;;;;;;;;;;;;;;4937206;29;1169;-72
2022/12/18 00:33:27;;;;;;;;;;;;;;;;;;4937396;29;1041;-72
2022/12/18 00:35:53;;;;;;;;;;;;;;;;;;4936849;29;1251;-72
2022/12/18 00:38:19;;;;;;;;;;;;;;;;;;4938141;29;777;-71
2022/12/18 00:40:45;;;;;;;;;;;;;;;;;;4952863;28;1397;-71
2022/12/18 00:43:11;;;;;;;;;;;;;;;;;;4936859;29;1454;-71
2022/12/18 00:45:38;;;;;;;;;;;;;;;;;;4936398;29;1915;-71
2022/12/18 00:48:06;;;;;;;;;;;;;;;;;;4944308;29;1128;-71
2022/12/18 00:50:32;;;;;;;;;;;;;;;;;;4949643;29;1288;-71
2022/12/18 00:53:00;;;;;;;;;;;;;;;;;;4956148;28;890;-72
2022/12/18 00:55:26;;;;;;;;;;;;;;;;;;4955553;28;1426;-72
2022/12/18 00:57:53;;;;;;;;;;;;;;;;;;4956534;28;1313;-71
2022/12/18 01:00:19;;;;;;;;;;;;;;;;;;4954477;29;1371;-72
2022/12/18 01:02:45;;;;;;;;;;;;;;;;;;4955812;29;978;-71
2022/12/18 01:05:13;;;;;;;;;;;;;;;;;;4955131;28;1972;-73
2022/12/18 01:07:39;;;;;;;;;;;;;;;;;;4955382;28;1244;-71
2022/12/18 01:10:06;;;;;;;;;;;;;;;;;;4953529;28;1801;-71
2022/12/18 01:12:34;;;;;;;;;;;;;;;;;;4933250;29;1158;-72
2022/12/18 01:15:00;;;;;;;;;;;;;;;;;;4956995;28;1382;-72
2022/12/18 01:17:26;;;;;;;;;;;;;;;;;;4931140;29;1315;-71
2022/12/18 01:19:53;;;;;;;;;;;;;;;;;;4929148;29;1269;-72
2022/12/18 01:22:20;;;;;;;;;;;;;;;;;;4934132;29;1345;-72
2022/12/18 01:24:46;;;;;;;;;;;;;;;;;;4937136;29;1907;-72
2022/12/18 01:27:13;;;;;;;;;;;;;;;;;;4937407;29;1136;-73
2022/12/18 01:29:39;;;;;;;;;;;;;;;;;;4931648;29;1134;-73
2022/12/18 01:32:06;;;;;;;;;;;;;;;;;;4932222;29;1257;-72
2022/12/18 01:34:32;;;;;;;;;;;;;;;;;;4934958;29;1362;-71
2022/12/18 01:36:58;;;;;;;;;;;;;;;;;;4936132;29;1182;-72
2022/12/18 01:39:25;;;;;;;;;;;;;;;;;;4923451;29;2060;-72
2022/12/18 01:42:04;;;;;;;;;;;;;;;;;;4924234;29;1257;-71
2022/12/18 01:44:48;;;;;;;;;;;;;;;;;;4932621;29;1337;-72
2022/12/18 01:47:14;;;;;;;;;;;;;;;;;;4938013;29;1138;-72
2022/12/18 01:49:41;;;;;;;;;;;;;;;;;;4943954;28;1308;-72
2022/12/18 01:52:07;;;;;;;;;;;;;;;;;;4935565;29;1124;-72
2022/12/18 01:54:35;;;;;;;;;;;;;;;;;;4933723;29;1361;-72
2022/12/18 01:57:01;;;;;;;;;;;;;;;;;;4934503;29;1774;-72
2022/12/18 01:59:27;;;;;;;;;;;;;;;;;;4941707;29;1150;-72
2022/12/18 02:01:54;;;;;;;;;;;;;;;;;;4948975;28;1144;-72
2022/12/18 02:04:21;;;;;;;;;;;;;;;;;;4949162;28;1369;-72
2022/12/18 02:06:47;;;;;;;;;;;;;;;;;;4934941;29;1955;-74
2022/12/18 02:09:14;;;;;;;;;;;;;;;;;;4934506;29;1233;-72
2022/12/18 02:11:44;;;;;;;;;;;;;;;;;;4935884;29;801;-72
2022/12/18 02:14:13;;;;;;;;;;;;;;;;;;4950998;28;1303;-72
2022/12/18 02:16:40;;;;;;;;;;;;;;;;;;4935194;29;1124;-72
2022/12/18 02:19:07;;;;;;;;;;;;;;;;;;4945614;29;1108;-72
2022/12/18 02:21:35;;;;;;;;;;;;;;;;;;4953609;28;1186;-72
2022/12/18 02:24:06;;;;;;;;;;;;;;;;;;4954185;28;1437;-72
2022/12/18 02:26:35;;;;;;;;;;;;;;;;;;4939557;29;1914;-72
2022/12/18 02:29:03;;;;;;;;;;;;;;;;;;4942888;29;1160;-72
2022/12/18 02:31:31;;;;;;;;;;;;;;;;;;4935015;29;1450;-72
2022/12/18 02:33:59;;;;;;;;;;;;;;;;;;4935045;29;1368;-72
2022/12/18 02:36:26;;;;;;;;;;;;;;;;;;4935028;29;1038;-72
2022/12/18 02:38:55;;;;;;;;;;;;;;;;;;4934752;29;1325;-72
2022/12/18 02:41:22;;;;;;;;;;;;;;;;;;4933942;29;1210;-72
2022/12/18 02:43:49;;;;;;;;;;;;;;;;;;4935091;29;1521;-72
2022/12/18 02:46:29;;;;;;;;;;;;;;;;;;4934617;29;1903;-72
2022/12/18 02:48:58;;;;;;;;;;;;;;;;;;4942603;28;1487;-73
2022/12/18 02:51:27;;;;;;;;;;;;;;;;;;4952868;28;970;-72
2022/12/18 02:53:57;;;;;;;;;;;;;;;;;;4953449;28;1389;-72
2022/12/18 02:56:24;;;;;;;;;;;;;;;;;;4953551;28;1498;-73
2022/12/18 02:58:53;;;;;;;;;;;;;;;;;;4953631;28;1369;-72
2022/12/18 03:01:31;;;;;;;;;;;;;;;;;;4951962;28;1559;-72
2022/12/18 03:04:00;;;;;;;;;;;;;;;;;;4953162;28;1360;-72
2022/12/18 03:06:27;;;;;;;;;;;;;;;;;;4953290;28;1911;-72
2022/12/18 03:08:55;;;;;;;;;;;;;;;;;;4953622;28;1334;-72
2022/12/18 03:12:22;;;;;;;;;;;;;;;;;;4952596;28;1315;-73
2022/12/18 03:14:10;;;;;;;;;;;;;;;;;;4968952;28;1385;-72
2022/12/18 03:16:37;;;;;;;;;;;;;;;;;;4949213;28;1253;-73
2022/12/18 03:19:05;;;;;;;;;;;;;;;;;;4943064;29;1401;-72
2022/12/18 03:21:33;;;;;;;;;;;;;;;;;;4952656;28;1626;-72
2022/12/18 03:23:59;;;;;;;;;;;;;;;;;;4950541;28;1406;-73
2022/12/18 03:26:27;;;;;;;;;;;;;;;;;;4930733;29;1973;-73
2022/12/18 03:28:58;;;;;;;;;;;;;;;;;;4915082;29;1351;-73
2022/12/18 03:31:27;;;;;;;;;;;;;;;;;;4918163;29;2348;-73
2022/12/18 03:33:54;;;;;;;;;;;;;;;;;;4934194;29;1220;-72
2022/12/18 03:36:25;;;;;;;;;;;;;;;;;;4936962;29;1330;-72
2022/12/18 03:38:51;;;;;;;;;;;;;;;;;;4938620;29;1565;-72
2022/12/18 03:41:19;;;;;;;;;;;;;;;;;;4933885;29;1327;-73
2022/12/18 03:44:06;;;;;;;;;;;;;;;;;;4935102;29;1376;-73
2022/12/18 03:46:37;;;;;;;;;;;;;;;;;;4933814;29;1911;-72
2022/12/18 03:49:06;;;;;;;;;;;;;;;;;;4949477;28;1303;-71
2022/12/18 03:51:36;;;;;;;;;;;;;;;;;;4933001;29;1513;-72
2022/12/18 03:54:03;;;;;;;;;;;;;;;;;;4933946;29;1320;-72
2022/12/18 03:56:34;;;;;;;;;;;;;;;;;;4933706;29;1040;-71
2022/12/18 03:59:01;;;;;;;;;;;;;;;;;;4935199;29;1298;-72
2022/12/18 04:01:29;;;;;;;;;;;;;;;;;;4936488;29;1174;-73
2022/12/18 04:03:57;;;;;;;;;;;;;;;;;;4937070;29;1394;-72
2022/12/18 04:06:24;;;;;;;;;;;;;;;;;;4937143;29;1974;-72
2022/12/18 04:08:51;;;;;;;;;;;;;;;;;;4937483;29;1190;-72
2022/12/18 04:11:21;;;;;;;;;;;;;;;;;;4936565;29;1267;-73
2022/12/18 04:13:48;;;;;;;;;;;;;;;;;;4937457;29;1324;-72
2022/12/18 04:16:20;;;;;;;;;;;;;;;;;;4937361;29;1485;-72
2022/12/18 04:18:49;;;;;;;;;;;;;;;;;;4944922;28;1463;-73
2022/12/18 04:21:17;;;;;;;;;;;;;;;;;;4955416;28;1412;-72
2022/12/18 04:23:44;;;;;;;;;;;;;;;;;;4957441;28;922;-73
2022/12/18 04:26:10;;;;;;;;;;;;;;;;;;4956304;28;1969;-73
2022/12/18 04:28:46;;;;;;;;;;;;;;;;;;4954253;28;1449;-72
2022/12/18 04:31:12;;;;;;;;;;;;;;;;;;4946139;28;1597;-72
2022/12/18 04:33:39;;;;;;;;;;;;;;;;;;4955161;28;1380;-72
2022/12/18 04:36:06;;;;;;;;;;;;;;;;;;4942035;28;1535;-72
2022/12/18 04:38:35;;;;;;;;;;;;;;;;;;4917865;29;1257;-72
2022/12/18 04:41:07;;;;;;;;;;;;;;;;;;4933589;29;1464;-72
2022/12/18 04:43:35;;;;;;;;;;;;;;;;;;4917311;29;1453;-72
2022/12/18 04:46:02;;;;;;;;;;;;;;;;;;4920929;29;1989;-72
2022/12/18 04:48:28;;;;;;;;;;;;;;;;;;4936809;29;1818;-72
2022/12/18 04:50:54;;;;;;;;;;;;;;;;;;4935379;29;1167;-72
2022/12/18 04:53:20;;;;;;;;;;;;;;;;;;4931759;29;1621;-72
2022/12/18 04:55:48;;;;;;;;;;;;;;;;;;4937334;29;1624;-71
2022/12/18 04:58:14;;;;;;;;;;;;;;;;;;4935885;29;1069;-73
2022/12/18 05:00:40;;;;;;;;;;;;;;;;;;4936977;29;1285;-72
2022/12/18 05:03:07;;;;;;;;;;;;;;;;;;4929732;29;1077;-73
2022/12/18 05:05:34;;;;;;;;;;;;;;;;;;4931580;29;1266;-73
2022/12/18 05:08:01;;;;;;;;;;;;;;;;;;4931552;29;1988;-74
2022/12/18 05:10:27;;;;;;;;;;;;;;;;;;4932602;29;776;-73
2022/12/18 05:13:01;;;;;;;;;;;;;;;;;;4935194;29;1077;-73
2022/12/18 05:15:27;;;;;;;;;;;;;;;;;;4936766;29;1386;-73
2022/12/18 05:17:54;;;;;;;;;;;;;;;;;;4944379;28;1121;-72
2022/12/18 05:20:20;;;;;;;;;;;;;;;;;;4939030;28;1326;-73
2022/12/18 05:22:46;;;;;;;;;;;;;;;;;;4954476;28;835;-72
2022/12/18 05:25:12;;;;;;;;;;;;;;;;;;4951345;28;1307;-73
2022/12/18 05:27:38;;;;;;;;;;;;;;;;;;4937661;29;1919;-73
2022/12/18 05:30:07;;;;;;;;;;;;;;;;;;4932634;29;950;-73
2022/12/18 05:32:33;;;;;;;;;;;;;;;;;;4932854;29;2072;-73
2022/12/18 05:34:59;;;;;;;;;;;;;;;;;;4932970;29;1376;-74
2022/12/18 05:37:25;;;;;;;;;;;;;;;;;;4932036;29;1124;-74
2022/12/18 05:39:51;;;;;;;;;;;;;;;;;;4932061;29;763;-73
2022/12/18 05:42:18;;;;;;;;;;;;;;;;;;4930021;29;1362;-73
2022/12/18 05:44:44;;;;;;;;;;;;;;;;;;4930412;29;1349;-73
2022/12/18 05:47:11;;;;;;;;;;;;;;;;;;4933519;29;1914;-74
2022/12/18 05:49:38;;;;;;;;;;;;;;;;;;4941681;28;1135;-73
2022/12/18 05:52:04;;;;;;;;;;;;;;;;;;4950354;28;800;-72
2022/12/18 05:54:30;;;;;;;;;;;;;;;;;;4949318;28;1338;-72
2022/12/18 05:56:57;;;;;;;;;;;;;;;;;;4950619;29;1056;-73
2022/12/18 05:59:23;;;;;;;;;;;;;;;;;;4950594;28;1289;-73
2022/12/18 06:01:49;;;;;;;;;;;;;;;;;;4948950;29;1198;-74
2022/12/18 06:04:17;;;;;;;;;;;;;;;;;;4950384;28;1311;-73
2022/12/18 06:06:43;;;;;;;;;;;;;;;;;;4950132;28;1915;-72
2022/12/18 06:09:09;;;;;;;;;;;;;;;;;;4951352;28;1096;-73
2022/12/18 06:11:36;;;;;;;;;;;;;;;;;;4949837;28;999;-72
2022/12/18 06:14:02;;;;;;;;;;;;;;;;;;4950216;28;1397;-72
2022/12/18 06:16:29;;;;;;;;;;;;;;;;;;4950029;29;1065;-73
2022/12/18 06:18:56;;;;;;;;;;;;;;;;;;4943813;28;1198;-73
2022/12/18 06:21:24;;;;;;;;;;;;;;;;;;4950271;28;954;-73
2022/12/18 06:23:50;;;;;;;;;;;;;;;;;;4948787;29;1275;-71
2022/12/18 06:26:16;;;;;;;;;;;;;;;;;;4949775;28;1997;-70
2022/12/18 06:28:42;;;;;;;;;;;;;;;;;;4954399;28;1009;-72
2022/12/18 06:31:09;;;;;;;;;;;;;;;;;;4955091;29;1073;-72
2022/12/18 06:33:35;;;;;;;;;;;;;;;;;;4953242;28;1065;-72
2022/12/18 06:36:02;;;;;;;;;;;;;;;;;;4954705;28;1365;-71
2022/12/18 06:38:29;;;;;;;;;;;;;;;;;;4954848;28;1124;-72
2022/12/18 06:40:55;;;;;;;;;;;;;;;;;;4952961;28;1073;-72
2022/12/18 06:43:22;;;;;;;;;;;;;;;;;;4952837;29;883;-71
2022/12/18 06:45:52;;;;;;;;;;;;;;;;;;4954495;28;1280;-71
2022/12/18 06:48:18;;;;;;;;;;;;;;;;;;4945256;29;1919;-71
2022/12/18 06:50:44;;;;;;;;;;;;;;;;;;4949687;28;1467;-71
2022/12/18 06:53:10;;;;;;;;;;;;;;;;;;4953853;28;1060;-71
2022/12/18 06:55:38;;;;;;;;;;;;;;;;;;4954733;28;1315;-71
2022/12/18 06:58:04;;;;;;;;;;;;;;;;;;4938770;28;1501;-70
2022/12/18 07:00:31;;;;;;;;;;;;;;;;;;4944024;28;1292;-71
2022/12/18 07:02:57;;;;;;;;;;;;;;;;;;4936845;29;1412;-72
2022/12/18 07:05:24;;;;;;;;;;;;;;;;;;4917716;29;1431;-73
2022/12/18 07:07:50;;;;;;;;;;;;;;;;;;4910993;29;1966;-74
2022/12/18 07:10:16;;;;;;;;;;;;;;;;;;4913711;29;1405;-70
2022/12/18 07:12:43;;;;;;;;;;;;;;;;;;4924831;29;1486;-72
2022/12/18 07:15:10;;;;;;;;;;;;;;;;;;4930517;29;1703;-72
2022/12/18 07:17:36;;;;;;;;;;;;;;;;;;4932624;29;1422;-71
2022/12/18 07:20:02;;;;;;;;;;;;;;;;;;4928717;29;1447;-70
2022/12/18 07:22:28;;;;;;;;;;;;;;;;;;4935278;29;1223;-71
2022/12/18 07:24:55;;;;;;;;;;;;;;;;;;4924493;29;1491;-73
2022/12/18 07:27:21;;;;;;;;;;;;;;;;;;4871979;29;1997;-74
2022/12/18 07:29:49;;;;;;;;;;;;;;;;;;4820353;29;1350;-77
2022/12/18 07:32:16;;;;;;;;;;;;;;;;;;4816283;29;1058;-76
2022/12/18 07:34:43;;;;;;;;;;;;;;;;;;4813259;29;1530;-74
2022/12/18 07:37:10;;;;;;;;;;;;;;;;;;4814798;29;1198;-74
2022/12/18 07:39:37;;;;;;;;;;;;;;;;;;4814470;29;1508;-75
2022/12/18 07:44:50;;;;;;;;;;;;;;;;;;4817383;29;1449;-74
2022/12/18 07:47:17;;;;;;;;;;;;;;;;;;4813936;29;1938;-76
2022/12/18 07:49:44;;;;;;;;;;;;;;;;;;4829969;29;999;-74
2022/12/18 07:52:12;;;;;;;;;;;;;;;;;;4814868;29;972;-74
2022/12/18 07:54:40;;;;;;;;;;;;;;;;;;4824535;29;1402;-75
2022/12/18 07:57:07;;;;;;;;;;;;;;;;;;4819327;29;1712;-74
2022/12/18 07:59:33;;;;;;;;;;;;;;;;;;4819725;29;1494;-74
2022/12/18 08:02:02;;;;;;;;;;;;;;;;;;4821503;29;1154;-74
2022/12/18 08:04:28;;;;;;;;;;;;;;;;;;4832344;28;1315;-74
2022/12/18 08:06:55;;;;;;;;;;;;;;;;;;4807464;29;1951;-74
2022/12/18 08:09:22;;;;;;;;;;;;;;;;;;4805292;29;832;-75
2022/12/18 08:11:49;;;;;;;;;;;;;;;;;;4817618;29;1606;-74
2022/12/18 08:14:16;;;;;;;;;;;;;;;;;;4819200;29;1389;-76
2022/12/18 08:16:43;;;;;;;;;;;;;;;;;;4823057;29;1051;-74
2022/12/18 08:19:11;;;;;;;;;;;;;;;;;;4818914;29;1004;-74
2022/12/18 08:21:38;;;;;;;;;;;;;;;;;;4848131;28;1144;-74
2022/12/18 08:24:06;;;;;;;;;;;;;;;;;;4824265;29;1457;-74
2022/12/18 08:26:33;;;;;;;;;;;;;;;;;;4807314;29;1325;-74
2022/12/18 08:29:00;;;;;;;;;;;;;;;;;;4829428;29;2006;-74
2022/12/18 08:31:27;;;;;;;;;;;;;;;;;;4813594;29;1118;-74
2022/12/18 08:33:55;;;;;;;;;;;;;;;;;;4829820;28;1115;-74
2022/12/18 08:36:23;;;;;;;;;;;;;;;;;;4863246;28;1320;-75
2022/12/18 08:38:50;;;;;;;;;;;;;;;;;;4842052;28;1197;-75
2022/12/18 08:41:18;;;;;;;;;;;;;;;;;;4843169;29;1022;-75
2022/12/18 08:46:32;;;;;;;;;;;;;;;;;;4930379;29;1152;-72
2022/12/18 08:48:58;;;;;;;;;;;;;;;;;;4936396;28;1942;-73
2022/12/18 08:51:26;;;;;;;;;;;;;;;;;;4940291;29;1462;-73
2022/12/18 08:53:52;;;;;;;;;;;;;;;;;;4934797;28;1567;-71
2022/12/18 08:56:18;;;;;;;;;;;;;;;;;;4911590;29;1459;-73
2022/12/18 08:58:44;;;;;;;;;;;;;;;;;;4940798;28;1577;-70
2022/12/18 09:01:11;;;;;;;;;;;;;;;;;;4932203;29;1428;-73
2022/12/18 09:03:38;;;;;;;;;;;;;;;;;;4942051;29;1287;-73
2022/12/18 09:06:04;;;;;;;;;;;;;;;;;;4934885;29;1400;-72
2022/12/18 09:08:32;;;;;;;;;;;;;;;;;;4936965;29;1914;-72
2022/12/18 09:10:58;;;;;;;;;;;;;;;;;;4929494;29;1407;-72
2022/12/18 09:13:24;;;;;;;;;;;;;;;;;;4932580;29;1588;-71
2022/12/18 09:15:52;;;;;;;;;;;;;;;;;;4937529;28;1887;-72
2022/12/18 09:18:19;;;;;;;;;;;;;;;;;;4927157;29;1592;-71
2022/12/18 09:20:45;;;;;;;;;;;;;;;;;;4928923;29;1574;-72
2022/12/18 09:23:11;;;;;;;;;;;;;;;;;;4932098;29;1660;-73
2022/12/18 09:25:39;;;;;;;;;;;;;;;;;;4934982;28;1422;-73
2022/12/18 09:28:06;;;;;;;;;;;;;;;;;;4934853;29;1919;-73
2022/12/18 09:30:33;;;;;;;;;;;;;;;;;;4929712;29;1514;-73
2022/12/18 09:33:00;;;;;;;;;;;;;;;;;;4943419;28;1544;-73
2022/12/18 09:35:27;;;;;;;;;;;;;;;;;;4927546;29;1515;-73
2022/12/18 09:37:53;;;;;;;;;;;;;;;;;;4942236;28;1482;-73
2022/12/18 09:40:22;;;;;;;;;;;;;;;;;;4923332;29;1410;-73
2022/12/18 09:42:51;;;;;;;;;;;;;;;;;;4938558;28;1293;-73
2022/12/18 09:45:17;;;;;;;;;;;;;;;;;;4943119;28;1487;-73
2022/12/18 09:47:44;;;;;;;;;;;;;;;;;;4929098;29;1915;-73
2022/12/18 09:50:16;;;;;;;;;;;;;;;;;;4938187;29;1442;-72
2022/12/18 09:52:44;;;;;;;;;;;;;;;;;;4930573;29;1523;-72
2022/12/18 09:55:11;;;;;;;;;;;;;;;;;;4940787;28;1677;-72
2022/12/18 09:57:38;;;;;;;;;;;;;;;;;;4932697;28;1497;-73
2022/12/18 10:00:07;;;;;;;;;;;;;;;;;;4933232;29;1653;-72
2022/12/18 10:02:37;;;;;;;;;;;;;;;;;;4933494;29;712;-74
2022/12/18 10:05:07;;;;;;;;;;;;;;;;;;4927153;29;1651;-74
2022/12/18 10:07:36;;;;;;;;;;;;;;;;;;4912738;29;1907;-72
2022/12/18 10:10:04;;;;;;;;;;;;;;;;;;4945773;29;1568;-72
2022/12/18 10:12:32;;;;;;;;;;;;;;;;;;4896290;29;1431;-75
2022/12/18 10:15:03;;;;;;;;;;;;;;;;;;4847488;29;1639;-75
2022/12/18 10:17:34;;;;;;;;;;;;;;;;;;4824111;29;1371;-77
2022/12/18 10:20:02;;;;;;;;;;;;;;;;;;4826616;29;1321;-77
2022/12/18 10:22:33;;;;;;;;;;;;;;;;;;4825122;29;1673;-74
2022/12/18 10:25:01;;;;;;;;;;;;;;;;;;4830876;29;1625;-76
2022/12/18 10:27:28;;;;;;;;;;;;;;;;;;4838803;28;894;-74
2022/12/18 10:29:55;;;;;;;;;;;;;;;;;;4837226;28;1935;-74
2022/12/18 10:32:23;;;;;;;;;;;;;;;;;;4837119;29;1138;-74
2022/12/18 10:34:52;;;;;;;;;;;;;;;;;;4835701;28;1302;-74
2022/12/18 10:37:20;;;;;;;;;;;;;;;;;;4835617;29;1106;-74
2022/12/18 10:39:47;;;;;;;;;;;;;;;;;;4823530;29;1377;-77
2022/12/18 10:42:17;;;;;;;;;;;;;;;;;;4820895;29;1079;-74
2022/12/18 10:44:44;;;;;;;;;;;;;;;;;;4832555;29;1409;-74
2022/12/18 10:47:12;;;;;;;;;;;;;;;;;;4842374;28;1066;-75
2022/12/18 10:49:39;;;;;;;;;;;;;;;;;;4810301;29;1993;-75
2022/12/18 10:52:12;;;;;;;;;;;;;;;;;;4806331;29;957;-75
2022/12/18 10:54:39;;;;;;;;;;;;;;;;;;4820387;29;1275;-75
2022/12/18 10:57:15;;;;;;;;;;;;;;;;;;4840482;28;1390;-74
2022/12/18 10:59:51;;;;;;;;;;;;;;;;;;4838457;28;972;-74
2022/12/18 11:02:26;;;;;;;;;;;;;;;;;;4859393;28;1142;-75
2022/12/18 11:04:53;;;;;;;;;;;;;;;;;;4840278;28;1429;-75
2022/12/18 11:07:21;;;;;;;;;;;;;;;;;;4831092;28;1216;-74
2022/12/18 11:10:00;;;;;;;;;;;;;;;;;;4846665;28;1943;-74
2022/12/18 11:12:28;;;;;;;;;;;;;;;;;;4836750;29;1712;-74
2022/12/18 11:14:55;;;;;;;;;;;;;;;;;;4817575;29;1359;-74
2022/12/18 11:17:22;;;;;;;;;;;;;;;;;;4838143;29;1166;-74
2022/12/18 11:19:53;;;;;;;;;;;;;;;;;;4833438;29;976;-74
2022/12/18 11:22:22;;;;;;;;;;;;;;;;;;4826899;29;972;-75
2022/12/18 11:24:53;;;;;;;;;;;;;;;;;;4831654;29;1304;-75
2022/12/18 11:30:07;;;;;;;;;;;;;;;;;;4949759;28;1949;-72
2022/12/18 11:32:34;;;;;;;;;;;;;;;;;;4946843;29;1398;-73
2022/12/18 11:35:03;;;;;;;;;;;;;;;;;;4938309;28;1883;-73
2022/12/18 11:37:30;;;;;;;;;;;;;;;;;;4955501;28;1472;-73
2022/12/18 11:39:57;;;;;;;;;;;;;;;;;;4949760;29;1160;-73
2022/12/18 11:42:25;;;;;;;;;;;;;;;;;;4949084;28;1129;-74
2022/12/18 11:44:51;;;;;;;;;;;;;;;;;;4954255;28;1137;-76
2022/12/18 11:47:21;;;;;;;;;;;;;;;;;;4949014;28;1334;-76
2022/12/18 11:49:48;;;;;;;;;;;;;;;;;;4951198;29;1973;-72
2022/12/18 11:52:16;;;;;;;;;;;;;;;;;;4931954;29;1529;-75
2022/12/18 11:54:43;;;;;;;;;;;;;;;;;;4925744;29;1408;-75
2022/12/18 11:57:11;;;;;;;;;;;;;;;;;;4939351;29;1309;-75
2022/12/18 11:59:38;;;;;;;;;;;;;;;;;;4923465;29;1489;-76
2022/12/18 12:02:11;;;;;;;;;;;;;;;;;;4954343;28;1598;-75
2022/12/18 12:04:55;;;;;;;;;;;;;;;;;;4958299;28;1338;-75
2022/12/18 12:07:24;;;;;;;;;;;;;;;;;;4938991;29;1365;-75
2022/12/18 12:09:53;;;;;;;;;;;;;;;;;;4934989;29;1911;-75
2022/12/18 12:12:24;;;;;;;;;;;;;;;;;;4926041;29;1654;-76
2022/12/18 12:14:53;;;;;;;;;;;;;;;;;;4934770;29;1168;-75
2022/12/18 12:17:21;;;;;;;;;;;;;;;;;;4949627;29;1360;-73
2022/12/18 12:19:49;;;;;;;;;;;;;;;;;;4936151;29;1081;-75
2022/12/18 12:22:17;;;;;;;;;;;;;;;;;;4945004;29;1505;-76
2022/12/18 12:24:50;;;;;;;;;;;;;;;;;;4968215;28;1198;-76
2022/12/18 12:27:19;;;;;;;;;;;;;;;;;;4956889;28;1114;-76
2022/12/18 12:29:47;;;;;;;;;;;;;;;;;;4957585;28;1967;-76
2022/12/18 12:32:23;;;;;;;;;;;;;;;;;;4952733;28;1458;-76
2022/12/18 12:34:54;;;;;;;;;;;;;;;;;;4954154;29;1387;-76
2022/12/18 12:37:23;;;;;;;;;;;;;;;;;;4947031;28;1279;-75
2022/12/18 12:39:49;;;;;;;;;;;;;;;;;;4957735;28;887;-76
2022/12/18 12:45:02;;;;;;;;;;;;;;;;;;4949290;29;1111;-76
2022/12/18 12:47:29;;;;;;;;;;;;;;;;;;4957244;28;1271;-75
2022/12/18 12:49:55;;;;;;;;;;;;;;;;;;4956993;28;1918;-74
2022/12/18 12:52:23;;;;;;;;;;;;;;;;;;4945801;29;1553;-75
2022/12/18 12:54:49;;;;;;;;;;;;;;;;;;4967811;28;1164;-75
2022/12/18 12:57:16;;;;;;;;;;;;;;;;;;4957374;29;772;-72
2022/12/18 12:59:45;;;;;;;;;;;;;;;;;;4954274;28;1813;-75
2022/12/18 13:02:15;;;;;;;;;;;;;;;;;;4932890;29;1913;-74
2022/12/18 13:04:42;;;;;;;;;;;;;;;;;;4953178;28;1207;-74
2022/12/18 13:07:11;;;;;;;;;;;;;;;;;;4947618;29;1135;-74
2022/12/18 13:09:57;;;;;;;;;;;;;;;;;;4956964;28;1914;-75
2022/12/18 13:15:13;;;;;;;;;;;;;;;;;;4939848;28;1224;-75
2022/12/18 13:17:41;;;;;;;;;;;;;;;;;;4935093;29;1438;-75
2022/12/18 13:20:09;;;;;;;;;;;;;;;;;;4934328;29;1403;-74
2022/12/18 13:22:36;;;;;;;;;;;;;;;;;;4947837;29;1065;-75
2022/12/18 13:25:02;;;;;;;;;;;;;;;;;;4942292;28;1438;-75
2022/12/18 13:27:47;;;;;;;;;;;;;;;;;;4950080;29;1430;-74
2022/12/18 13:30:32;;;;;;;;;;;;;;;;;;4956623;29;1910;-73
2022/12/18 13:33:11;;;;;;;;;;;;;;;;;;4859557;29;1427;-74
2022/12/18 13:35:38;;;;;;;;;;;;;;;;;;4844442;28;1185;-75
2022/12/18 13:38:19;;;;;;;;;;;;;;;;;;4827410;29;1256;-75
2022/12/18 13:40:56;;;;;;;;;;;;;;;;;;4819985;29;1356;-74
2022/12/18 13:43:31;;;;;;;;;;;;;;;;;;4828596;29;1119;-73
2022/12/18 13:46:02;;;;;;;;;;;;;;;;;;4804318;29;969;-74
2022/12/18 13:48:31;;;;;;;;;;;;;;;;;;4823095;29;1279;-72
2022/12/18 13:50:59;;;;;;;;;;;;;;;;;;4823693;29;2032;-72
2022/12/18 13:53:28;;;;;;;;;;;;;;;;;;4824376;29;2232;-72
2022/12/18 13:55:55;;;;;;;;;;;;;;;;;;4878548;28;1398;-74
2022/12/18 13:58:21;;;;;;;;;;;;;;;;;;4960797;28;1472;-74
2022/12/18 14:00:48;;;;;;;;;;;;;;;;;;4949195;29;1506;-71
2022/12/18 14:03:18;;;;;;;;;;;;;;;;;;4941732;29;1164;-72
2022/12/18 14:05:47;;;;;;;;;;;;;;;;;;4936326;29;1483;-75
2022/12/18 14:08:13;;;;;;;;;;;;;;;;;;4948312;28;1413;-74
2022/12/18 14:10:40;;;;;;;;;;;;;;;;;;4950611;28;2250;-75
2022/12/18 14:13:08;;;;;;;;;;;;;;;;;;4949994;28;1719;-72
2022/12/18 14:15:35;;;;;;;;;;;;;;;;;;4952524;28;1583;-72
2022/12/18 14:18:02;;;;;;;;;;;;;;;;;;4942096;28;1363;-72
2022/12/18 14:20:28;;;;;;;;;;;;;;;;;;4944798;28;1195;-73
2022/12/18 14:22:56;;;;;;;;;;;;;;;;;;4951535;29;776;-71
2022/12/18 14:25:23;;;;;;;;;;;;;;;;;;4953231;28;1261;-73
2022/12/18 14:27:51;;;;;;;;;;;;;;;;;;4912326;29;1406;-72
2022/12/18 14:30:33;;;;;;;;;;;;;;;;;;4928343;29;1973;-73
2022/12/18 14:33:00;;;;;;;;;;;;;;;;;;4938996;28;1439;-74
2022/12/18 14:35:27;;;;;;;;;;;;;;;;;;4939638;29;1017;-73
2022/12/18 14:37:53;;;;;;;;;;;;;;;;;;4932359;29;1478;-70
2022/12/18 14:40:21;;;;;;;;;;;;;;;;;;4934948;28;1423;-71
2022/12/18 14:42:47;;;;;;;;;;;;;;;;;;4929524;28;1825;-70
2022/12/18 14:45:33;;;;;;;;;;;;;;;;;;4930834;29;1403;-71
2022/12/18 14:47:59;;;;;;;;;;;;;;;;;;4937504;28;1409;-71
2022/12/18 14:50:26;;;;;;;;;;;;;;;;;;4938009;29;1968;-72
2022/12/18 14:52:52;;;;;;;;;;;;;;;;;;4965603;28;1265;-72
2022/12/18 14:55:19;;;;;;;;;;;;;;;;;;4938762;29;1478;-73
2022/12/18 14:57:46;;;;;;;;;;;;;;;;;;4935252;29;1289;-72
2022/12/18 15:00:16;;;;;;;;;;;;;;;;;;4946348;28;1420;-73
2022/12/18 15:02:43;;;;;;;;;;;;;;;;;;4932991;28;1460;-72
2022/12/18 15:05:17;;;;;;;;;;;;;;;;;;4934365;29;1387;-72
2022/12/18 15:07:44;;;;;;;;;;;;;;;;;;4931484;29;1299;-72
2022/12/18 15:10:12;;;;;;;;;;;;;;;;;;4935346;28;1914;-73
2022/12/18 15:12:40;;;;;;;;;;;;;;;;;;4936749;28;1437;-71
2022/12/18 15:15:21;;;;;;;;;;;;;;;;;;4941777;29;1390;-72
2022/12/18 15:17:49;;;;;;;;;;;;;;;;;;4950180;28;1356;-72
2022/12/18 15:20:16;;;;;;;;;;;;;;;;;;4965515;28;1400;-73
2022/12/18 15:22:42;;;;;;;;;;;;;;;;;;4954580;28;1363;-72
2022/12/18 15:25:21;;;;;;;;;;;;;;;;;;4947336;28;1521;-72
2022/12/18 15:27:48;;;;;;;;;;;;;;;;;;4946777;28;1445;-71
2022/12/18 15:30:19;;;;;;;;;;;;;;;;;;4942133;29;1927;-72
2022/12/18 15:32:45;;;;;;;;;;;;;;;;;;4931404;29;1513;-73
2022/12/18 15:35:15;;;;;;;;;;;;;;;;;;4939051;29;1359;-72
2022/12/18 15:37:42;;;;;;;;;;;;;;;;;;4932614;29;1386;-72
2022/12/18 15:40:09;;;;;;;;;;;;;;;;;;4948063;28;1540;-72
2022/12/18 15:45:15;;;;;;;;;;;;;;;;;;4897620;29;1237;-71
2022/12/18 15:47:42;;;;;;;;;;;;;;;;;;4931482;29;1340;-73
2022/12/18 15:50:09;;;;;;;;;;;;;;;;;;4950877;28;1970;-73
2022/12/18 15:52:38;;;;;;;;;;;;;;;;;;4945502;28;1419;-72
2022/12/18 15:57:50;;;;;;;;;;;;;;;;;;4966426;28;1289;-72
2022/12/18 16:00:17;;;;;;;;;;;;;;;;;;4939131;28;1117;-73
2022/12/18 16:02:44;;;;;;;;;;;;;;;;;;4870802;28;1553;-73
2022/12/18 16:05:13;;;;;;;;;;;;;;;;;;4840933;29;1455;-74
2022/12/18 16:07:41;;;;;;;;;;;;;;;;;;4840452;29;1327;-74
2022/12/18 16:10:08;;;;;;;;;;;;;;;;;;4896981;29;1915;-73
2022/12/18 16:12:35;;;;;;;;;;;;;;;;;;4934993;29;1347;-72
2022/12/18 16:15:01;;;;;;;;;;;;;;;;;;4942530;29;1502;-72
2022/12/18 16:17:28;;;;;;;;;;;;;;;;;;4935136;29;1323;-73
2022/12/18 16:19:54;;;;;;;;;;;;;;;;;;4934853;29;1082;-72
2022/12/18 16:22:22;;;;;;;;;;;;;;;;;;4934467;28;1324;-72
2022/12/18 16:24:50;;;;;;;;;;;;;;;;;;4943813;28;1367;-72
2022/12/18 16:27:16;;;;;;;;;;;;;;;;;;4955096;28;1393;-72
2022/12/18 16:29:42;;;;;;;;;;;;;;;;;;4954815;28;1915;-72
2022/12/18 16:32:09;;;;;;;;;;;;;;;;;;4942989;28;1284;-73
2022/12/18 16:34:36;;;;;;;;;;;;;;;;;;4966425;28;1169;-72
2022/12/18 16:37:03;;;;;;;;;;;;;;;;;;4941278;28;1405;-72
2022/12/18 16:39:30;;;;;;;;;;;;;;;;;;4939438;28;1422;-72
2022/12/18 16:41:58;;;;;;;;;;;;;;;;;;4935396;29;1715;-72
2022/12/18 16:44:25;;;;;;;;;;;;;;;;;;4942027;29;1166;-72
2022/12/18 16:46:51;;;;;;;;;;;;;;;;;;4939673;29;1497;-72
2022/12/18 16:49:18;;;;;;;;;;;;;;;;;;4950282;28;1319;-73
2022/12/18 16:51:45;;;;;;;;;;;;;;;;;;4934085;29;2044;-72
2022/12/18 16:54:11;;;;;;;;;;;;;;;;;;4944584;29;1401;-72
2022/12/18 16:56:37;;;;;;;;;;;;;;;;;;4959127;29;1377;-72
2022/12/18 16:59:06;;;;;;;;;;;;;;;;;;4965780;28;1500;-72
2022/12/18 17:01:33;;;;;;;;;;;;;;;;;;4971769;28;1145;-72
2022/12/18 17:04:00;;;;;;;;;;;;;;;;;;4935338;29;1417;-72
2022/12/18 17:06:27;;;;;;;;;;;;;;;;;;4932351;29;1478;-72
2022/12/18 17:08:55;;;;;;;;;;;;;;;;;;4933523;29;1408;-72
2022/12/18 17:11:21;;;;;;;;;;;;;;;;;;4948582;29;1915;-72
2022/12/18 17:13:47;;;;;;;;;;;;;;;;;;4934055;29;1303;-72
2022/12/18 17:16:16;;;;;;;;;;;;;;;;;;4934180;29;1146;-72
2022/12/18 17:18:42;;;;;;;;;;;;;;;;;;4937823;28;1430;-73
2022/12/18 17:21:09;;;;;;;;;;;;;;;;;;4942821;28;1264;-72
2022/12/18 17:23:37;;;;;;;;;;;;;;;;;;4863643;29;847;-74
2022/12/18 17:26:06;;;;;;;;;;;;;;;;;;4839816;29;1217;-75
2022/12/18 17:28:32;;;;;;;;;;;;;;;;;;4870526;28;1571;-72